Al Rawdah — V7VM8 — position and weather

sailwx.info

Track history (hours):
 
Tides and Currents Weather Stations Pressure Air Temp Water Temp Dewpoint Dewpoint Depression Visibility Wind Speed Wind Dir Waves Ship Positions

Al Rawdah

Last reported at 2015-Aug-24 12:23 UTC. Time now 2015-Aug-30 07:54 UTC.
Position N 32°23' E 029°28'.

Length 307 m; draft 12.6 m.

Type: Ship (hazmat cat A). MMSI: 538004160.

Date/timePositionNaut miles runAvg speedWind from/ knotsBaromVisibWave heightAir tempDewpointWater temp
2015-Aug-24 12:23N 32°23' E 029°28'1720.5
2015-Aug-24 11:32N 32°28' E 029°08'  
2015-Aug-22 04:04N 35°43' E 014°56'612.6
2015-Aug-22 03:33N 35°45' E 014°48'1311.4
2015-Aug-22 02:25N 35°49' E 014°33'1 0.1
2015-Aug-21 20:28N 35°49' E 014°32'0 0.0
2015-Aug-21 19:25N 35°49' E 014°32'0 0.0
2015-Aug-21 18:31N 35°49' E 014°32'0 0.0
2015-Aug-21 17:31N 35°49' E 014°32'0 0.0
2015-Aug-21 16:31N 35°49' E 014°32'0 0.5
2015-Aug-21 15:33N 35°49' E 014°33'7 5.5
2015-Aug-21 14:19N 35°45' E 014°39'5 5.9
2015-Aug-21 13:31N 35°45' E 014°33'1313.3
2015-Aug-21 12:33N 35°44' E 014°18'1717.4
2015-Aug-21 11:33N 35°55' E 014°02'1817.9
2015-Aug-21 10:33N 36°07' E 013°45'1818.0
2015-Aug-21 09:33N 36°19' E 013°29'1918.7
2015-Aug-21 08:33N 36°32' E 013°11'2219.3
2015-Aug-21 07:25N 36°49' E 012°55'5819.2
2015-Aug-21 04:25N 37°36' E 012°13'1719.6
2015-Aug-21 03:33N 37°49' E 011°60'31919.3
2015-Aug-20 11:03N 42°50' E 009°41'1119.8
2015-Aug-20 10:28N 43°01' E 009°37'1819.2
2015-Aug-20 09:32N 43°18' E 009°30'2020.2
2015-Aug-20 08:33N 43°37' E 009°20'2020.2
2015-Aug-20 07:33N 43°55' E 009°10'2019.8
2015-Aug-20 06:33N 44°14' E 009°01'1110.2
2015-Aug-20 05:28N 44°24' E 008°55'0 0.0
2015-Aug-20 04:31N 44°24' E 008°55'0 0.0
2015-Aug-20 03:31N 44°24' E 008°55'0 0.0
2015-Aug-20 02:31N 44°24' E 008°55'0 0.0
2015-Aug-20 01:31N 44°24' E 008°55'0 0.0
2015-Aug-20 00:31N 44°24' E 008°55'0 0.0
2015-Aug-19 23:31N 44°24' E 008°55'0 0.0
2015-Aug-19 22:31N 44°24' E 008°55'0 0.0
2015-Aug-19 21:28N 44°24' E 008°55'0 0.0
2015-Aug-19 20:25N 44°24' E 008°55'0 0.0
2015-Aug-19 19:25N 44°24' E 008°55'0 0.0
2015-Aug-19 18:25N 44°24' E 008°55'0 0.0
2015-Aug-19 17:31N 44°24' E 008°55'0 0.0
2015-Aug-19 16:28N 44°24' E 008°55'0 0.0
2015-Aug-19 15:28N 44°24' E 008°55'0 0.0
2015-Aug-19 14:31N 44°24' E 008°55'0 0.0
2015-Aug-19 13:31N 44°24' E 008°55'0 0.0
2015-Aug-19 12:31N 44°24' E 008°55'0 0.0
2015-Aug-19 11:31N 44°24' E 008°55'0 0.0
2015-Aug-19 10:31N 44°24' E 008°55'0 0.0
2015-Aug-19 09:29N 44°24' E 008°55'3 2.8
2015-Aug-19 08:33N 44°23' E 008°58'2 2.1
2015-Aug-19 07:33N 44°21' E 008°59'3 3.3
2015-Aug-19 06:34N 44°18' E 008°57'4 3.7
2015-Aug-19 05:33N 44°15' E 008°53'0 0.0
2015-Aug-19 04:33N 44°15' E 008°53'0 0.5
2015-Aug-19 03:33N 44°15' E 008°54'1 1.2
2015-Aug-19 02:33N 44°15' E 008°55'7 6.7
2015-Aug-19 01:33N 44°13' E 009°04'1212.5
2015-Aug-19 00:33N 44°03' E 009°14'1212.5
2015-Aug-18 23:33N 43°53' E 009°23'1212.2
2015-Aug-18 22:33N 43°43' E 009°33'1111.0
2015-Aug-18 21:33N 43°34' E 009°43'1211.5
2015-Aug-18 20:33N 43°30' E 009°58'1010.3
2015-Aug-18 19:33N 43°26' E 010°11'1 1.3
2015-Aug-18 18:33N 43°27' E 010°10'8 7.9
2015-Aug-18 17:33N 43°33' E 010°18'1 1.2
2015-Aug-18 16:32N 43°35' E 010°18'0 0.0
2015-Aug-18 15:32N 43°35' E 010°18'0 0.0
2015-Aug-18 14:32N 43°35' E 010°18'0 0.0
2015-Aug-18 13:29N 43°35' E 010°18'0 0.0
2015-Aug-18 12:32N 43°35' E 010°18'0 0.0
2015-Aug-18 11:32N 43°35' E 010°18'0 0.0
2015-Aug-18 10:32N 43°35' E 010°18'0 0.0
2015-Aug-18 09:32N 43°35' E 010°18'0 0.0
2015-Aug-18 08:32N 43°35' E 010°18'0 0.1
2015-Aug-18 07:32N 43°34' E 010°18'4 3.8
2015-Aug-18 06:29N 43°31' E 010°16'1 1.5
2015-Aug-18 05:32N 43°30' E 010°16'0 0.0
2015-Aug-18 04:32N 43°30' E 010°16'0 0.0
2015-Aug-18 04:08N 43°30' E 010°16'0 0.0
2015-Aug-18 03:32N 43°30' E 010°16'0 0.0
2015-Aug-18 02:32N 43°30' E 010°16'0 0.0
2015-Aug-18 01:32N 43°30' E 010°16'0 0.0
2015-Aug-18 00:32N 43°30' E 010°16'0 0.0
2015-Aug-17 23:32N 43°30' E 010°16'0 0.0
2015-Aug-17 22:32N 43°30' E 010°16'0 0.0
2015-Aug-17 21:32N 43°30' E 010°16'0 0.0
2015-Aug-17 20:32N 43°30' E 010°16'0 0.0
2015-Aug-17 19:32N 43°30' E 010°16'0 0.0
2015-Aug-17 18:29N 43°30' E 010°16'0 0.0
2015-Aug-17 17:32N 43°30' E 010°16'0 0.0
2015-Aug-17 16:32N 43°30' E 010°16'0 0.0
2015-Aug-17 15:32N 43°30' E 010°16'3 3.3
2015-Aug-17 14:34N 43°28' E 010°12'1212.0
2015-Aug-17 13:33N 43°30' E 009°56'1212.0
2015-Aug-17 12:33N 43°29' E 009°39'1312.8
2015-Aug-17 11:34N 43°25' E 009°23'1312.7
2015-Aug-17 10:34N 43°20' E 009°07'1313.0
2015-Aug-17 09:33N 43°15' E 008°50'6412.4
2015-Aug-17 04:25N 42°52' E 007°29'1012.1
2015-Aug-17 03:33N 42°47' E 007°16'1212.4
2015-Aug-17 02:33N 42°43' E 007°00'1212.4
2015-Aug-17 01:33N 42°38' E 006°45'1212.5
2015-Aug-17 00:33N 42°34' E 006°29'2512.6
2015-Aug-16 22:33N 42°24' E 005°57'1312.6
2015-Aug-16 21:30N 42°19' E 005°40'16812.0
2015-Aug-16 07:30N 41°18' E 002°10'3 0.3
2015-Aug-15 21:26N 41°21' E 002°10'7 1.7
2015-Aug-15 17:13N 41°14' E 002°10'2 2.9
2015-Aug-15 16:29N 41°12' E 002°08'1011.0
2015-Aug-15 15:33N 41°05' E 001°58'1111.3
2015-Aug-15 14:34N 40°56' E 001°49'1111.3
2015-Aug-15 13:33N 40°48' E 001°39'1111.4
2015-Aug-15 12:34N 40°39' E 001°29'1211.7
2015-Aug-15 11:33N 40°31' E 001°17'1111.4
2015-Aug-15 10:33N 40°24' E 001°06'1111.2
2015-Aug-15 09:32N 40°17' E 000°55'5911.7
2015-Aug-15 04:31N 39°36' W 000°01'1111.5
2015-Aug-15 03:34N 39°28' W 000°10'7 6.4
2015-Aug-15 02:31N 39°26' W 000°19'1 0.6
2015-Aug-15 01:32N 39°27' W 000°19'0 0.0
2015-Aug-15 00:32N 39°27' W 000°19'0 0.0
2015-Aug-14 23:32N 39°27' W 000°19'0 0.0
2015-Aug-14 22:32N 39°27' W 000°19'0 0.0
2015-Aug-14 21:32N 39°27' W 000°19'0 0.0
2015-Aug-14 20:32N 39°27' W 000°19'0 0.0
2015-Aug-14 19:32N 39°27' W 000°19'0 0.0
2015-Aug-14 18:32N 39°27' W 000°19'0 0.0
2015-Aug-14 17:32N 39°27' W 000°19'0 0.0
2015-Aug-14 16:32N 39°27' W 000°19'0 0.0
2015-Aug-14 15:32N 39°27' W 000°19'0 0.0
2015-Aug-14 14:32N 39°27' W 000°19'0 0.0
2015-Aug-14 13:32N 39°27' W 000°19'0 0.0
2015-Aug-14 12:33N 39°27' W 000°19'  
Track history (hours):
 
Tides and Currents Weather Stations Pressure Air Temp Water Temp Dewpoint Dewpoint Depression Visibility Wind Speed Wind Dir Waves Ship Positions

Al Rawdah

Last reported at 2015-Aug-24 12:23 UTC. Time now 2015-Aug-30 07:54 UTC.
Position N 32°23' E 029°28'.

Length 307 m; draft 12.6 m.

Type: Ship (hazmat cat A). MMSI: 538004160.

Date/timePositionNaut miles runAvg speedWind from/ knotsBaromVisibWave heightAir tempDewpointWater temp
2015-Aug-24 12:23N 32°23' E 029°28'1720.5
2015-Aug-24 11:32N 32°28' E 029°08'  
2015-Aug-22 04:04N 35°43' E 014°56'612.6
2015-Aug-22 03:33N 35°45' E 014°48'1311.4
2015-Aug-22 02:25N 35°49' E 014°33'1 0.1
2015-Aug-21 20:28N 35°49' E 014°32'0 0.0
2015-Aug-21 19:25N 35°49' E 014°32'0 0.0
2015-Aug-21 18:31N 35°49' E 014°32'0 0.0
2015-Aug-21 17:31N 35°49' E 014°32'0 0.0
2015-Aug-21 16:31N 35°49' E 014°32'0 0.5
2015-Aug-21 15:33N 35°49' E 014°33'7 5.5
2015-Aug-21 14:19N 35°45' E 014°39'5 5.9
2015-Aug-21 13:31N 35°45' E 014°33'1313.3
2015-Aug-21 12:33N 35°44' E 014°18'1717.4
2015-Aug-21 11:33N 35°55' E 014°02'1817.9
2015-Aug-21 10:33N 36°07' E 013°45'1818.0
2015-Aug-21 09:33N 36°19' E 013°29'1918.7
2015-Aug-21 08:33N 36°32' E 013°11'2219.3
2015-Aug-21 07:25N 36°49' E 012°55'5819.2
2015-Aug-21 04:25N 37°36' E 012°13'1719.6
2015-Aug-21 03:33N 37°49' E 011°60'31919.3
2015-Aug-20 11:03N 42°50' E 009°41'1119.8
2015-Aug-20 10:28N 43°01' E 009°37'1819.2
2015-Aug-20 09:32N 43°18' E 009°30'2020.2
2015-Aug-20 08:33N 43°37' E 009°20'2020.2
2015-Aug-20 07:33N 43°55' E 009°10'2019.8
2015-Aug-20 06:33N 44°14' E 009°01'1110.2
2015-Aug-20 05:28N 44°24' E 008°55'0 0.0
2015-Aug-20 04:31N 44°24' E 008°55'0 0.0
2015-Aug-20 03:31N 44°24' E 008°55'0 0.0
2015-Aug-20 02:31N 44°24' E 008°55'0 0.0
2015-Aug-20 01:31N 44°24' E 008°55'0 0.0
2015-Aug-20 00:31N 44°24' E 008°55'0 0.0
2015-Aug-19 23:31N 44°24' E 008°55'0 0.0
2015-Aug-19 22:31N 44°24' E 008°55'0 0.0
2015-Aug-19 21:28N 44°24' E 008°55'0 0.0
2015-Aug-19 20:25N 44°24' E 008°55'0 0.0
2015-Aug-19 19:25N 44°24' E 008°55'0 0.0
2015-Aug-19 18:25N 44°24' E 008°55'0 0.0
2015-Aug-19 17:31N 44°24' E 008°55'0 0.0
2015-Aug-19 16:28N 44°24' E 008°55'0 0.0
2015-Aug-19 15:28N 44°24' E 008°55'0 0.0
2015-Aug-19 14:31N 44°24' E 008°55'0 0.0
2015-Aug-19 13:31N 44°24' E 008°55'0 0.0
2015-Aug-19 12:31N 44°24' E 008°55'0 0.0
2015-Aug-19 11:31N 44°24' E 008°55'0 0.0
2015-Aug-19 10:31N 44°24' E 008°55'0 0.0
2015-Aug-19 09:29N 44°24' E 008°55'3 2.8
2015-Aug-19 08:33N 44°23' E 008°58'2 2.1
2015-Aug-19 07:33N 44°21' E 008°59'3 3.3
2015-Aug-19 06:34N 44°18' E 008°57'4 3.7
2015-Aug-19 05:33N 44°15' E 008°53'0 0.0
2015-Aug-19 04:33N 44°15' E 008°53'0 0.5
2015-Aug-19 03:33N 44°15' E 008°54'1 1.2
2015-Aug-19 02:33N 44°15' E 008°55'7 6.7
2015-Aug-19 01:33N 44°13' E 009°04'1212.5
2015-Aug-19 00:33N 44°03' E 009°14'1212.5
2015-Aug-18 23:33N 43°53' E 009°23'1212.2
2015-Aug-18 22:33N 43°43' E 009°33'1111.0
2015-Aug-18 21:33N 43°34' E 009°43'1211.5
2015-Aug-18 20:33N 43°30' E 009°58'1010.3
2015-Aug-18 19:33N 43°26' E 010°11'1 1.3
2015-Aug-18 18:33N 43°27' E 010°10'8 7.9
2015-Aug-18 17:33N 43°33' E 010°18'1 1.2
2015-Aug-18 16:32N 43°35' E 010°18'0 0.0
2015-Aug-18 15:32N 43°35' E 010°18'0 0.0
2015-Aug-18 14:32N 43°35' E 010°18'0 0.0
2015-Aug-18 13:29N 43°35' E 010°18'0 0.0
2015-Aug-18 12:32N 43°35' E 010°18'0 0.0
2015-Aug-18 11:32N 43°35' E 010°18'0 0.0
2015-Aug-18 10:32N 43°35' E 010°18'0 0.0
2015-Aug-18 09:32N 43°35' E 010°18'0 0.0
2015-Aug-18 08:32N 43°35' E 010°18'0 0.1
2015-Aug-18 07:32N 43°34' E 010°18'4 3.8
2015-Aug-18 06:29N 43°31' E 010°16'1 1.5
2015-Aug-18 05:32N 43°30' E 010°16'0 0.0
2015-Aug-18 04:32N 43°30' E 010°16'0 0.0
2015-Aug-18 04:08N 43°30' E 010°16'0 0.0
2015-Aug-18 03:32N 43°30' E 010°16'0 0.0
2015-Aug-18 02:32N 43°30' E 010°16'0 0.0
2015-Aug-18 01:32N 43°30' E 010°16'0 0.0
2015-Aug-18 00:32N 43°30' E 010°16'0 0.0
2015-Aug-17 23:32N 43°30' E 010°16'0 0.0
2015-Aug-17 22:32N 43°30' E 010°16'0 0.0
2015-Aug-17 21:32N 43°30' E 010°16'0 0.0
2015-Aug-17 20:32N 43°30' E 010°16'0 0.0
2015-Aug-17 19:32N 43°30' E 010°16'0 0.0
2015-Aug-17 18:29N 43°30' E 010°16'0 0.0
2015-Aug-17 17:32N 43°30' E 010°16'0 0.0
2015-Aug-17 16:32N 43°30' E 010°16'0 0.0
2015-Aug-17 15:32N 43°30' E 010°16'3 3.3
2015-Aug-17 14:34N 43°28' E 010°12'1212.0
2015-Aug-17 13:33N 43°30' E 009°56'1212.0
2015-Aug-17 12:33N 43°29' E 009°39'1312.8
2015-Aug-17 11:34N 43°25' E 009°23'1312.7
2015-Aug-17 10:34N 43°20' E 009°07'1313.0
2015-Aug-17 09:33N 43°15' E 008°50'6412.4
2015-Aug-17 04:25N 42°52' E 007°29'1012.1
2015-Aug-17 03:33N 42°47' E 007°16'1212.4
2015-Aug-17 02:33N 42°43' E 007°00'1212.4
2015-Aug-17 01:33N 42°38' E 006°45'1212.5
2015-Aug-17 00:33N 42°34' E 006°29'2512.6
2015-Aug-16 22:33N 42°24' E 005°57'1312.6
2015-Aug-16 21:30N 42°19' E 005°40'16812.0
2015-Aug-16 07:30N 41°18' E 002°10'3 0.3
2015-Aug-15 21:26N 41°21' E 002°10'7 1.7
2015-Aug-15 17:13N 41°14' E 002°10'2 2.9
2015-Aug-15 16:29N 41°12' E 002°08'1011.0
2015-Aug-15 15:33N 41°05' E 001°58'1111.3
2015-Aug-15 14:34N 40°56' E 001°49'1111.3
2015-Aug-15 13:33N 40°48' E 001°39'1111.4
2015-Aug-15 12:34N 40°39' E 001°29'1211.7
2015-Aug-15 11:33N 40°31' E 001°17'1111.4
2015-Aug-15 10:33N 40°24' E 001°06'1111.2
2015-Aug-15 09:32N 40°17' E 000°55'5911.7
2015-Aug-15 04:31N 39°36' W 000°01'1111.5
2015-Aug-15 03:34N 39°28' W 000°10'7 6.4
2015-Aug-15 02:31N 39°26' W 000°19'1 0.6
2015-Aug-15 01:32N 39°27' W 000°19'0 0.0
2015-Aug-15 00:32N 39°27' W 000°19'0 0.0
2015-Aug-14 23:32N 39°27' W 000°19'0 0.0
2015-Aug-14 22:32N 39°27' W 000°19'0 0.0
2015-Aug-14 21:32N 39°27' W 000°19'0 0.0
2015-Aug-14 20:32N 39°27' W 000°19'0 0.0
2015-Aug-14 19:32N 39°27' W 000°19'0 0.0
2015-Aug-14 18:32N 39°27' W 000°19'0 0.0
2015-Aug-14 17:32N 39°27' W 000°19'0 0.0
2015-Aug-14 16:32N 39°27' W 000°19'0 0.0
2015-Aug-14 15:32N 39°27' W 000°19'0 0.0
2015-Aug-14 14:32N 39°27' W 000°19'0 0.0
2015-Aug-14 13:32N 39°27' W 000°19'0 0.0
2015-Aug-14 12:33N 39°27' W 000°19'  

Dump ship's entire track history